Time;durP1;ratioP1;P1;durP2;ratioP2;P2;SDS_P1;SDS_P2;PMS_P1;PMS_P2;Temp;Humidity;BMP_temperature;BMP_pressure;BME280_temperature;BME280_humidity;BME280_pressure;Samples;Min_cycle;Max_cycle;Signal;HPM_P1;HPM_P2
2024/03/28 00:02:19;;;;;;;2.15;1.40;;;;;;;9.78;100.00;98440.00;5274074;28;20027;-75
2024/03/28 00:04:49;;;;;;;3.03;1.55;;;;;;;9.79;100.00;98437.13;5266668;28;20503;-73
2024/03/28 00:07:20;;;;;;;3.25;1.25;;;;;;;9.79;100.00;98430.97;5276837;28;20032;-74
2024/03/28 00:09:50;;;;;;;2.83;1.23;;;;;;;9.75;100.00;98435.09;5266103;28;20019;-73
2024/03/28 00:12:21;;;;;;;2.88;1.40;;;;;;;9.73;100.00;98432.63;5275555;28;20529;-73
2024/03/28 00:14:51;;;;;;;3.17;1.50;;;;;;;9.73;100.00;98437.97;5269166;28;20035;-74
2024/03/28 00:17:22;;;;;;;3.50;1.23;;;;;;;9.73;100.00;98451.38;5271284;28;20019;-74
2024/03/28 00:19:52;;;;;;;1.58;1.10;;;;;;;9.67;100.00;98446.09;5272820;28;20107;-73
2024/03/28 00:22:23;;;;;;;1.65;1.42;;;;;;;9.64;100.00;98450.03;5274033;28;20023;-74
2024/03/28 00:24:53;;;;;;;4.30;1.52;;;;;;;9.64;100.00;98428.63;5265690;28;20027;-76
2024/03/28 00:27:23;;;;;;;4.35;1.33;;;;;;;9.65;100.00;98424.91;5273497;28;20043;-73
2024/03/28 00:29:54;;;;;;;2.03;1.25;;;;;;;9.65;100.00;98424.91;5269382;28;20107;-74
2024/03/28 00:32:24;;;;;;;2.25;1.48;;;;;;;9.59;100.00;98415.88;5276434;28;20031;-74
2024/03/28 00:34:55;;;;;;;3.33;1.50;;;;;;;9.63;100.00;98415.44;5272806;28;20500;-73
2024/03/28 00:37:25;;;;;;;2.25;1.48;;;;;;;9.57;100.00;98414.44;5274856;28;20028;-75
2024/03/28 00:39:56;;;;;;;3.42;1.30;;;;;;;9.56;100.00;98424.34;5269767;28;20020;-74
2024/03/28 00:42:26;;;;;;;3.55;1.33;;;;;;;9.57;100.00;98417.94;5273840;28;20058;-73
2024/03/28 00:44:57;;;;;;;3.63;1.45;;;;;;;9.53;100.00;98424.75;5272794;28;20020;-73
2024/03/28 00:47:27;;;;;;;4.10;1.60;;;;;;;9.50;100.00;98419.88;5276001;28;20397;-73
2024/03/28 00:49:58;;;;;;;1.77;1.30;;;;;;;9.44;100.00;98414.53;5265924;28;20047;-74
2024/03/28 00:52:28;;;;;;;3.28;1.25;;;;;;;9.47;100.00;98417.63;5273797;28;20435;-74
2024/03/28 00:54:59;;;;;;;3.15;1.40;;;;;;;9.44;100.00;98422.56;5272718;28;20043;-74
2024/03/28 00:57:29;;;;;;;3.55;2.00;;;;;;;9.46;100.00;98417.84;5279166;28;20079;-73
2024/03/28 01:00:00;;;;;;;3.47;1.30;;;;;;;9.47;100.00;98414.94;5270253;28;20020;-74
2024/03/28 01:02:30;;;;;;;1.40;1.20;;;;;;;9.46;100.00;98413.31;5276244;28;20031;-74
2024/03/28 01:05:01;;;;;;;1.92;1.40;;;;;;;9.50;100.00;98397.63;5273712;28;20026;-73
2024/03/28 01:07:31;;;;;;;1.52;1.20;;;;;;;9.52;100.00;98384.84;5274892;28;20023;-75
2024/03/28 01:10:02;;;;;;;3.05;2.17;;;;;;;9.47;100.00;98387.34;5277356;28;20095;-74
2024/03/28 01:12:32;;;;;;;3.60;1.67;;;;;;;9.47;100.00;98382.81;5276414;28;20029;-74
2024/03/28 01:15:03;;;;;;;2.08;1.40;;;;;;;9.44;100.00;98372.56;5276103;28;20047;-73
2024/03/28 01:17:34;;;;;;;2.42;1.60;;;;;;;9.37;100.00;98365.63;5275350;28;20448;-75
2024/03/28 01:20:07;;;;;;;3.40;1.90;;;;;;;9.33;100.00;98366.06;5279478;28;20493;-74
2024/03/28 01:22:39;;;;;;;3.10;1.65;;;;;;;9.41;100.00;98372.19;5277411;28;20027;-73
2024/03/28 01:25:10;;;;;;;2.40;1.48;;;;;;;9.41;100.00;98373.00;5278087;28;20035;-75
2024/03/28 01:27:40;;;;;;;3.33;1.70;;;;;;;9.43;100.00;98370.91;5275773;28;20782;-76
2024/03/28 01:30:11;;;;;;;5.57;1.60;;;;;;;9.46;100.00;98359.78;5271469;28;20020;-75
2024/03/28 01:32:43;;;;;;;3.20;1.75;;;;;;;9.44;100.00;98359.19;5272074;28;20024;-73
2024/03/28 01:35:13;;;;;;;4.05;1.88;;;;;;;9.51;100.00;98359.94;5274512;28;20073;-74
2024/03/28 01:37:44;;;;;;;2.28;1.75;;;;;;;9.50;100.00;98357.50;5274751;28;20024;-74
2024/03/28 01:40:14;;;;;;;4.63;1.92;;;;;;;9.46;100.00;98351.75;5275275;28;20412;-74
2024/03/28 01:42:46;;;;;;;5.25;2.67;;;;;;;9.52;100.00;98345.50;5279436;28;20533;-76
2024/03/28 01:45:16;;;;;;;5.35;1.80;;;;;;;9.56;100.00;98343.22;5276744;27;20055;-73
2024/03/28 01:47:47;;;;;;;3.00;2.03;;;;;;;9.52;100.00;98329.44;5272454;28;20110;-75
2024/03/28 01:50:18;;;;;;;5.78;2.10;;;;;;;9.51;100.00;98318.97;5274984;28;20024;-74
2024/03/28 01:52:49;;;;;;;4.75;1.80;;;;;;;9.55;100.00;98314.81;5277236;28;20027;-76
2024/03/28 01:55:20;;;;;;;8.40;2.40;;;;;;;9.54;100.00;98313.19;5274198;28;20019;-74
2024/03/28 01:57:51;;;;;;;3.97;2.03;;;;;;;9.54;100.00;98299.81;5277115;28;20027;-75
2024/03/28 02:00:22;;;;;;;3.03;2.20;;;;;;;9.60;100.00;98299.75;5274516;28;20023;-74
2024/03/28 02:02:55;;;;;;;2.72;2.20;;;;;;;9.59;100.00;98284.72;5277721;28;20116;-74
2024/03/28 02:05:26;;;;;;;3.30;2.30;;;;;;;9.65;100.00;98285.69;5274177;28;20121;-74
2024/03/28 02:07:58;;;;;;;4.45;2.53;;;;;;;9.63;100.00;98274.38;5276180;28;20102;-74
2024/03/28 02:10:29;;;;;;;3.40;2.08;;;;;;;9.65;100.00;98255.44;5277308;28;20099;-73
2024/03/28 02:13:00;;;;;;;2.65;1.88;;;;;;;9.65;100.00;98244.72;5277610;28;20481;-73
2024/03/28 02:15:30;;;;;;;3.28;2.35;;;;;;;9.64;100.00;98238.56;5276069;28;20028;-73
2024/03/28 02:18:01;;;;;;;2.92;2.10;;;;;;;9.67;100.00;98227.38;5272564;28;20038;-74
2024/03/28 02:20:31;;;;;;;7.47;2.47;;;;;;;9.63;100.00;98231.53;5276030;28;20027;-73
2024/03/28 02:23:02;;;;;;;4.22;2.40;;;;;;;9.63;100.00;98228.03;5276447;28;20103;-75
2024/03/28 02:25:33;;;;;;;3.17;2.30;;;;;;;9.60;100.00;98222.13;5274988;28;20034;-74
2024/03/28 02:28:04;;;;;;;5.25;2.63;;;;;;;9.57;100.00;98214.50;5274202;28;20428;-76
2024/03/28 02:30:35;;;;;;;2.53;1.90;;;;;;;9.60;100.00;98211.41;5273557;28;20389;-74
2024/03/28 02:33:05;;;;;;;6.20;2.50;;;;;;;9.51;100.00;98199.34;5272855;28;20031;-73
2024/03/28 02:35:35;;;;;;;3.53;2.13;;;;;;;9.45;100.00;98176.19;5273357;28;20035;-73
2024/03/28 02:38:06;;;;;;;3.72;2.03;;;;;;;9.40;100.00;98184.06;5270612;28;20504;-76
2024/03/28 02:40:37;;;;;;;4.20;2.45;;;;;;;9.33;100.00;98192.13;5271629;28;20660;-75
2024/03/28 02:43:07;;;;;;;4.05;2.00;;;;;;;9.28;100.00;98191.97;5277606;28;20024;-73
2024/03/28 02:45:38;;;;;;;4.40;2.33;;;;;;;9.14;100.00;98189.69;5272310;28;20035;-74
2024/03/28 02:48:08;;;;;;;3.55;2.00;;;;;;;9.01;100.00;98185.28;5278132;28;20028;-74
2024/03/28 02:50:40;;;;;;;6.18;2.53;;;;;;;9.01;100.00;98187.97;5271421;28;20031;-74
2024/03/28 02:53:10;;;;;;;7.18;2.78;;;;;;;8.91;100.00;98171.59;5277639;28;20431;-75
2024/03/28 02:55:41;;;;;;;4.30;2.75;;;;;;;8.86;100.00;98182.97;5269714;28;20397;-73
2024/03/28 02:58:11;;;;;;;6.32;2.67;;;;;;;8.82;100.00;98187.91;5276284;28;20031;-73
2024/03/28 03:00:42;;;;;;;3.58;2.22;;;;;;;8.72;100.00;98189.47;5271009;28;20644;-76
2024/03/28 03:03:15;;;;;;;2.80;1.90;;;;;;;8.65;100.00;98202.88;5273158;28;20028;-73
2024/03/28 03:05:49;;;;;;;3.05;2.35;;;;;;;8.64;100.00;98200.44;5272147;28;20027;-73
2024/03/28 03:08:20;;;;;;;4.93;2.55;;;;;;;8.68;100.00;98193.59;5275456;28;20030;-73
2024/03/28 03:10:50;;;;;;;3.58;2.33;;;;;;;8.63;100.00;98193.44;5272713;28;20023;-75
2024/03/28 03:13:22;;;;;;;5.03;2.40;;;;;;;8.64;100.00;98189.75;5274166;28;20103;-73
2024/03/28 03:15:55;;;;;;;3.88;2.67;;;;;;;8.54;100.00;98190.25;5275686;28;20615;-73
2024/03/28 03:18:26;;;;;;;4.73;2.37;;;;;;;8.61;100.00;98190.19;5267941;28;20370;-76
2024/03/28 03:21:10;;;;;;;3.70;2.38;;;;;;;8.44;100.00;98185.38;5269405;28;20039;-73
2024/03/28 03:23:48;;;;;;;3.53;2.42;;;;;;;8.48;100.00;98175.91;5273525;28;20514;-73
2024/03/28 03:26:20;;;;;;;4.10;2.38;;;;;;;8.47;100.00;98168.91;5270780;28;20051;-73
2024/03/28 03:34:37;;;;;;;4.15;2.58;;;;;;;8.36;100.00;98168.75;5268509;28;20023;-75
2024/03/28 03:37:19;;;;;;;3.97;2.33;;;;;;;8.39;100.00;98171.84;5275244;28;20030;-73
2024/03/28 03:39:59;;;;;;;2.72;2.17;;;;;;;8.38;100.00;98167.53;5269191;28;20420;-74
2024/03/28 03:42:30;;;;;;;3.95;2.30;;;;;;;8.34;100.00;98168.16;5270211;28;20024;-73
2024/03/28 03:45:00;;;;;;;3.70;2.40;;;;;;;8.31;100.00;98166.72;5271710;28;20504;-73
2024/03/28 03:47:31;;;;;;;5.40;2.40;;;;;;;8.23;100.00;98165.16;5271431;27;20089;-73
2024/03/28 03:50:03;;;;;;;4.03;2.45;;;;;;;8.19;100.00;98168.47;5268798;28;20008;-74
2024/03/28 03:52:34;;;;;;;3.42;2.38;;;;;;;8.17;100.00;98160.66;5272696;28;20024;-73
2024/03/28 03:55:05;;;;;;;5.10;2.55;;;;;;;8.11;100.00;98163.38;5271060;28;20031;-74
2024/03/28 03:57:36;;;;;;;4.93;2.63;;;;;;;8.03;100.00;98157.28;5277530;28;20031;-73
2024/03/28 04:00:09;;;;;;;5.13;2.45;;;;;;;7.98;100.00;98138.41;5273025;28;20027;-73
2024/03/28 04:02:40;;;;;;;6.93;3.33;;;;;;;7.94;100.00;98128.38;5273391;28;20084;-75
2024/03/28 04:05:12;;;;;;;3.28;2.35;;;;;;;7.97;100.00;98138.63;5275257;28;20380;-73
2024/03/28 04:07:43;;;;;;;3.45;2.42;;;;;;;7.94;100.00;98131.06;5275458;28;20020;-74
2024/03/28 04:10:13;;;;;;;4.95;2.90;;;;;;;7.94;100.00;98137.22;5276758;28;20492;-74
2024/03/28 04:12:44;;;;;;;3.42;2.25;;;;;;;7.92;100.00;98127.75;5270581;28;20056;-76
2024/03/28 04:15:14;;;;;;;5.03;2.63;;;;;;;7.91;100.00;98132.28;5276144;28;20434;-74
2024/03/28 04:17:45;;;;;;;8.32;3.15;;;;;;;7.77;100.00;98163.56;5274776;27;20059;-73
2024/03/28 04:20:15;;;;;;;5.65;2.75;;;;;;;7.74;100.00;98166.69;5277743;28;20024;-73
2024/03/28 04:22:46;;;;;;;3.78;2.42;;;;;;;7.68;100.00;98156.03;5275795;27;20020;-72
2024/03/28 04:25:16;;;;;;;4.03;2.60;;;;;;;7.73;100.00;98156.19;5270365;28;20102;-73
2024/03/28 04:27:47;;;;;;;4.00;2.65;;;;;;;7.86;100.00;98148.13;5276138;28;20027;-73
2024/03/28 04:30:17;;;;;;;5.72;3.00;;;;;;;7.89;100.00;98141.56;5275741;28;20071;-73
2024/03/28 04:32:48;;;;;;;4.10;2.47;;;;;;;7.89;100.00;98138.88;5274893;28;20020;-72
2024/03/28 04:35:18;;;;;;;5.90;2.47;;;;;;;7.86;100.00;98141.97;5277164;28;20030;-72
2024/03/28 04:37:49;;;;;;;4.43;2.20;;;;;;;8.02;100.00;98138.78;5266931;28;20024;-73
2024/03/28 04:40:20;;;;;;;3.63;1.90;;;;;;;8.10;100.00;98143.88;5278453;28;20027;-73
2024/03/28 04:42:50;;;;;;;14.43;3.75;;;;;;;8.29;100.00;98137.56;5272307;28;20019;-73
2024/03/28 04:45:21;;;;;;;4.57;1.75;;;;;;;8.35;100.00;98149.25;5274856;28;20027;-73
2024/03/28 04:47:52;;;;;;;4.20;1.83;;;;;;;8.45;100.00;98136.25;5273754;28;20652;-73
2024/03/28 04:50:22;;;;;;;3.15;1.80;;;;;;;8.50;100.00;98144.41;5274787;28;20499;-72
2024/03/28 04:52:53;;;;;;;4.07;1.77;;;;;;;8.65;100.00;98143.28;5274587;28;20020;-73
2024/03/28 04:55:23;;;;;;;2.33;1.80;;;;;;;8.69;100.00;98137.28;5269197;28;20028;-73
2024/03/28 04:57:54;;;;;;;2.92;1.70;;;;;;;8.76;100.00;98140.69;5274658;28;20031;-73
2024/03/28 05:00:24;;;;;;;3.42;1.80;;;;;;;8.86;100.00;98139.38;5278490;28;20439;-73
2024/03/28 05:02:55;;;;;;;4.03;1.65;;;;;;;8.98;100.00;98148.28;5270851;28;20031;-71
2024/03/28 05:05:25;;;;;;;3.08;1.50;;;;;;;8.93;100.00;98145.47;5273857;28;20047;-72
2024/03/28 05:07:56;;;;;;;2.03;1.48;;;;;;;9.11;100.00;98144.66;5273240;28;20069;-73
2024/03/28 05:10:26;;;;;;;4.35;1.83;;;;;;;9.12;100.00;98149.78;5273939;28;20024;-73
2024/03/28 05:12:56;;;;;;;3.63;1.33;;;;;;;9.16;100.00;98147.50;5273193;28;20073;-73
2024/03/28 05:15:27;;;;;;;2.15;1.52;;;;;;;9.21;100.00;98144.97;5270897;28;20027;-73
2024/03/28 05:17:58;;;;;;;2.17;1.45;;;;;;;9.28;100.00;98140.34;5271109;28;20028;-72
2024/03/28 05:20:29;;;;;;;4.85;1.80;;;;;;;9.21;100.00;98142.28;5277771;28;20435;-72
2024/03/28 05:22:59;;;;;;;2.50;1.45;;;;;;;9.27;100.00;98138.72;5269247;28;20016;-72
2024/03/28 05:25:30;;;;;;;4.65;1.55;;;;;;;9.33;100.00;98145.84;5269938;27;20035;-73
2024/03/28 05:28:00;;;;;;;2.05;1.33;;;;;;;9.21;100.00;98142.28;5275841;28;20421;-73
2024/03/28 05:30:31;;;;;;;2.70;1.80;;;;;;;9.35;100.00;98143.78;5272233;28;20433;-73
2024/03/28 05:33:01;;;;;;;3.47;1.73;;;;;;;9.27;100.00;98154.75;5273378;28;20016;-71
2024/03/28 05:35:32;;;;;;;3.35;1.77;;;;;;;9.40;100.00;98151.13;5264422;28;20111;-72
2024/03/28 05:38:02;;;;;;;2.05;1.35;;;;;;;9.49;100.00;98160.50;5270303;28;20073;-72
2024/03/28 05:40:33;;;;;;;2.72;1.50;;;;;;;9.44;100.00;98163.84;5273245;28;20024;-72
2024/03/28 05:43:03;;;;;;;4.03;1.90;;;;;;;9.28;100.00;98183.16;5262246;28;20028;-72
2024/03/28 05:45:34;;;;;;;3.35;1.67;;;;;;;9.32;100.00;98187.00;5265963;28;20023;-73
2024/03/28 05:48:05;;;;;;;2.72;1.92;;;;;;;9.24;100.00;98181.97;5275623;28;20036;-73
2024/03/28 05:50:35;;;;;;;2.25;1.63;;;;;;;9.14;100.00;98173.66;5269853;28;20016;-73
2024/03/28 05:53:06;;;;;;;4.10;1.67;;;;;;;9.19;100.00;98176.47;5271378;28;20063;-73
2024/03/28 05:55:36;;;;;;;5.10;1.92;;;;;;;9.11;100.00;98184.78;5273793;28;20021;-73
2024/03/28 05:58:07;;;;;;;3.22;1.92;;;;;;;9.01;100.00;98180.75;5275638;28;20036;-73
2024/03/28 06:00:38;;;;;;;2.90;1.70;;;;;;;8.95;100.00;98170.94;5274060;28;20423;-73
2024/03/28 06:03:08;;;;;;;3.95;1.75;;;;;;;8.92;100.00;98163.34;5274677;28;20517;-74
2024/03/28 06:05:39;;;;;;;4.57;1.40;;;;;;;8.89;100.00;98161.13;5272032;28;20028;-74
2024/03/28 06:08:09;;;;;;;2.35;1.50;;;;;;;8.84;100.00;98166.34;5271285;28;20086;-74
2024/03/28 06:10:44;;;;;;;3.35;1.35;;;;;;;8.74;100.00;98158.81;5271282;28;20493;-73
2024/03/28 06:13:16;;;;;;;4.03;1.67;;;;;;;8.78;100.00;98167.19;5274427;28;20019;-73
2024/03/28 06:15:47;;;;;;;4.10;2.00;;;;;;;8.73;100.00;98165.16;5268372;28;20028;-73
2024/03/28 06:18:17;;;;;;;4.30;2.03;;;;;;;8.76;100.00;98171.94;5276843;28;20030;-73
2024/03/28 06:20:55;;;;;;;5.03;2.08;;;;;;;8.73;100.00;98172.38;5271470;28;20080;-73
2024/03/28 06:23:26;;;;;;;2.85;1.98;;;;;;;8.69;100.00;98174.69;5258612;28;20054;-73
2024/03/28 06:26:02;;;;;;;3.05;1.92;;;;;;;8.73;100.00;98173.19;5264331;28;20094;-73
2024/03/28 06:28:33;;;;;;;3.78;1.60;;;;;;;8.69;100.00;98169.34;5273255;28;20019;-73
2024/03/28 06:31:04;;;;;;;6.72;1.67;;;;;;;8.67;100.00;98178.59;5267996;28;20103;-73
2024/03/28 06:33:35;;;;;;;3.05;1.48;;;;;;;8.71;100.00;98169.13;5270361;28;20023;-74
2024/03/28 06:36:06;;;;;;;2.13;1.13;;;;;;;8.52;100.00;98170.91;5270543;28;20038;-73
2024/03/28 06:38:37;;;;;;;2.13;1.30;;;;;;;8.48;100.00;98167.03;5268234;28;20442;-73
2024/03/28 06:41:08;;;;;;;3.03;1.52;;;;;;;8.62;100.00;98179.25;5270820;28;20035;-73
2024/03/28 06:43:39;;;;;;;4.75;1.50;;;;;;;8.51;100.00;98170.09;5267316;28;20704;-73
2024/03/28 06:46:09;;;;;;;1.95;1.08;;;;;;;8.48;100.00;98172.38;5269709;28;20147;-73
2024/03/28 06:48:40;;;;;;;1.85;1.00;;;;;;;8.46;100.00;98174.47;5270045;28;20111;-73
2024/03/28 06:51:10;;;;;;;2.97;1.50;;;;;;;8.61;100.00;98176.81;5272545;28;20034;-73
2024/03/28 06:53:41;;;;;;;2.38;1.40;;;;;;;8.67;100.00;98183.94;5270702;28;20022;-72
2024/03/28 06:56:11;;;;;;;3.42;1.33;;;;;;;8.57;100.00;98179.91;5276804;28;20032;-73
2024/03/28 06:58:42;;;;;;;3.17;1.40;;;;;;;8.43;100.00;98186.38;5271337;28;20019;-73
2024/03/28 07:01:12;;;;;;;2.80;1.38;;;;;;;8.50;100.00;98187.19;5274325;28;20018;-73
2024/03/28 07:03:43;;;;;;;2.75;1.45;;;;;;;8.63;100.00;98190.75;5268393;28;20446;-74
2024/03/28 07:06:13;;;;;;;3.08;1.35;;;;;;;8.54;100.00;98198.25;5273152;28;20020;-73
2024/03/28 07:08:44;;;;;;;3.28;1.10;;;;;;;8.69;100.00;98201.41;5271807;28;20465;-74
2024/03/28 07:11:14;;;;;;;2.63;1.52;;;;;;;8.56;100.00;98202.31;5270872;28;20110;-74
2024/03/28 07:13:45;;;;;;;1.65;1.38;;;;;;;8.53;100.00;98202.78;5270318;28;20022;-74
2024/03/28 07:16:16;;;;;;;2.85;1.05;;;;;;;8.59;100.00;98211.78;5272315;28;20554;-74
2024/03/28 07:18:46;;;;;;;3.38;1.40;;;;;;;8.67;100.00;98208.00;5270765;28;20030;-74
2024/03/28 07:21:17;;;;;;;3.90;1.40;;;;;;;8.69;100.00;98214.78;5272161;28;20019;-74
2024/03/28 07:23:48;;;;;;;8.15;1.38;;;;;;;8.80;100.00;98221.28;5269852;28;20024;-74
2024/03/28 07:26:18;;;;;;;2.78;1.10;;;;;;;8.86;100.00;98233.75;5272468;28;20045;-74
2024/03/28 07:28:49;;;;;;;2.88;1.73;;;;;;;8.94;100.00;98238.03;5270011;28;20016;-74
2024/03/28 07:31:19;;;;;;;3.95;2.10;;;;;;;8.99;100.00;98246.22;5274207;28;20456;-74
2024/03/28 07:33:50;;;;;;;3.25;1.77;;;;;;;8.92;100.00;98229.38;5266828;28;20293;-74
2024/03/28 07:36:21;;;;;;;2.78;1.38;;;;;;;8.89;100.00;98253.91;5273797;28;20115;-74
2024/03/28 07:38:51;;;;;;;4.65;1.75;;;;;;;8.91;100.00;98255.31;5270146;28;20373;-74
2024/03/28 07:41:22;;;;;;;3.80;1.63;;;;;;;8.93;100.00;98249.72;5278339;28;20023;-73
2024/03/28 07:43:52;;;;;;;4.18;1.70;;;;;;;8.96;100.00;98247.44;5272331;28;20097;-74
2024/03/28 07:46:24;;;;;;;2.30;1.65;;;;;;;8.94;100.00;98257.56;5277151;28;20020;-74
2024/03/28 07:48:54;;;;;;;3.00;1.48;;;;;;;9.06;100.00;98257.66;5274326;28;20036;-73
2024/03/28 07:51:25;;;;;;;3.53;1.60;;;;;;;9.00;100.00;98248.66;5279964;27;20649;-74
2024/03/28 07:53:55;;;;;;;4.13;1.60;;;;;;;8.92;100.00;98248.91;5272737;28;20050;-74
2024/03/28 07:56:26;;;;;;;2.35;1.35;;;;;;;8.91;100.00;98257.16;5281411;28;20022;-74
2024/03/28 07:58:57;;;;;;;3.58;1.73;;;;;;;8.97;100.00;98259.78;5272107;28;20082;-74
2024/03/28 08:01:27;;;;;;;4.80;1.95;;;;;;;8.88;100.00;98247.72;5276511;28;20023;-74
2024/03/28 08:03:58;;;;;;;1.80;1.05;;;;;;;8.86;100.00;98248.97;5270879;28;20055;-74
2024/03/28 08:06:28;;;;;;;1.20;1.00;;;;;;;8.98;100.00;98255.25;5276704;27;20049;-74
2024/03/28 08:08:59;;;;;;;2.67;1.08;;;;;;;9.08;100.00;98251.03;5274365;28;20028;-74
2024/03/28 08:11:30;;;;;;;4.47;1.55;;;;;;;9.18;100.00;98255.06;5275321;28;20042;-74
2024/03/28 08:14:00;;;;;;;2.75;1.30;;;;;;;9.19;100.00;98267.44;5273885;28;20089;-74
2024/03/28 08:16:32;;;;;;;3.25;1.60;;;;;;;9.23;100.00;98273.94;5273465;28;20022;-74
2024/03/28 08:19:02;;;;;;;3.85;2.38;;;;;;;9.19;100.00;98270.91;5274776;28;20016;-74
2024/03/28 08:21:33;;;;;;;2.83;2.00;;;;;;;9.27;100.00;98275.97;5271544;28;20020;-74
2024/03/28 08:24:04;;;;;;;3.28;1.90;;;;;;;9.18;100.00;98279.97;5265548;28;20023;-74
2024/03/28 08:26:35;;;;;;;2.72;1.88;;;;;;;9.17;100.00;98278.31;5267128;28;20023;-74
2024/03/28 08:29:05;;;;;;;4.53;1.95;;;;;;;9.27;100.00;98285.84;5270470;28;20103;-74
2024/03/28 08:31:36;;;;;;;4.57;1.67;;;;;;;9.38;100.00;98282.44;5269113;28;20019;-74
2024/03/28 08:34:07;;;;;;;5.05;2.33;;;;;;;9.28;100.00;98295.50;5270353;28;20027;-74
2024/03/28 08:36:37;;;;;;;6.63;2.35;;;;;;;9.38;100.00;98287.81;5271863;28;20066;-73
2024/03/28 08:39:08;;;;;;;5.75;2.88;;;;;;;9.51;100.00;98297.56;5269677;28;20027;-73
2024/03/28 08:41:40;;;;;;;5.57;2.65;;;;;;;9.48;100.00;98300.69;5267268;28;20684;-74
2024/03/28 08:44:11;;;;;;;4.22;2.80;;;;;;;9.58;100.00;98315.19;5269050;28;20404;-73
2024/03/28 08:46:44;;;;;;;3.80;2.58;;;;;;;9.57;100.00;98320.75;5267199;28;20034;-73
2024/03/28 08:49:14;;;;;;;7.32;2.85;;;;;;;9.58;100.00;98323.22;5264483;28;20043;-73
2024/03/28 08:51:46;;;;;;;5.53;2.47;;;;;;;9.70;100.00;98336.72;5266787;28;20020;-74
2024/03/28 08:54:17;;;;;;;7.22;4.50;;;;;;;9.92;100.00;98345.13;5267708;28;20374;-74
2024/03/28 08:56:47;;;;;;;8.57;3.35;;;;;;;10.13;100.00;98341.97;5270413;28;20016;-73
2024/03/28 08:59:19;;;;;;;3.75;2.28;;;;;;;10.33;100.00;98341.78;5266594;28;20435;-73
2024/03/28 09:01:50;;;;;;;8.07;2.45;;;;;;;10.17;100.00;98365.66;5268692;28;20016;-74
2024/03/28 09:04:21;;;;;;;3.70;2.33;;;;;;;10.24;100.00;98361.91;5265791;28;20035;-74
2024/03/28 09:06:52;;;;;;;6.82;2.20;;;;;;;10.44;100.00;98364.34;5269883;28;20050;-73
2024/03/28 09:09:23;;;;;;;5.97;1.98;;;;;;;10.63;100.00;98371.28;5269604;28;20016;-73
2024/03/28 09:11:54;;;;;;;4.60;2.05;;;;;;;10.63;100.00;98381.19;5267097;28;20031;-73
2024/03/28 09:14:24;;;;;;;2.92;2.00;;;;;;;10.66;100.00;98396.84;5265400;28;20024;-74
2024/03/28 09:16:54;;;;;;;9.95;9.05;;;;;;;10.75;100.00;98406.22;5267570;28;20020;-73
2024/03/28 09:19:25;;;;;;;19.60;15.05;;;;;;;10.80;100.00;98419.75;5265762;28;20020;-74
2024/03/28 09:21:56;;;;;;;3.53;2.13;;;;;;;10.93;100.00;98424.09;5268733;28;20012;-74
2024/03/28 09:24:27;;;;;;;9.23;2.45;;;;;;;11.03;100.00;98437.78;5264931;28;20024;-74
2024/03/28 09:26:57;;;;;;;3.67;2.10;;;;;;;11.37;100.00;98440.81;5267099;28;20030;-74
2024/03/28 09:29:28;;;;;;;9.48;1.95;;;;;;;12.14;100.00;98451.53;5268810;28;20016;-73
2024/03/28 09:31:58;;;;;;;3.25;1.58;;;;;;;12.66;100.00;98454.31;5267247;28;20026;-73
2024/03/28 09:34:29;;;;;;;5.63;1.92;;;;;;;13.07;100.00;98469.38;5265422;28;20024;-74
2024/03/28 09:36:59;;;;;;;7.07;1.50;;;;;;;13.30;100.00;98479.22;5269745;28;20620;-73
2024/03/28 09:39:30;;;;;;;2.38;1.45;;;;;;;13.33;100.00;98489.53;5269323;28;20092;-74
2024/03/28 09:42:02;;;;;;;5.68;2.08;;;;;;;13.56;100.00;98496.69;5270295;28;20016;-74
2024/03/28 09:44:35;;;;;;;5.30;1.20;;;;;;;13.57;100.00;98508.28;5271073;28;20421;-75
2024/03/28 09:47:08;;;;;;;6.10;2.45;;;;;;;13.84;100.00;98505.78;5268039;28;20031;-74
2024/03/28 09:49:40;;;;;;;3.65;1.67;;;;;;;13.56;100.00;98515.56;5271691;28;20043;-74
2024/03/28 09:52:13;;;;;;;3.63;1.35;;;;;;;13.39;100.00;98514.69;5268616;28;20020;-74
2024/03/28 09:54:45;;;;;;;1.65;1.20;;;;;;;13.32;100.00;98511.31;5266645;28;20024;-74
2024/03/28 09:57:15;;;;;;;5.32;1.40;;;;;;;13.22;100.00;98511.94;5270271;28;20129;-74
2024/03/28 09:59:46;;;;;;;4.00;1.42;;;;;;;13.51;100.00;98520.03;5266293;28;20039;-74
2024/03/28 10:02:16;;;;;;;4.07;1.00;;;;;;;13.67;100.00;98522.75;5272887;28;20028;-73
2024/03/28 10:04:54;;;;;;;7.97;1.30;;;;;;;14.08;100.00;98528.81;5266164;28;20035;-74
2024/03/28 10:07:25;;;;;;;3.92;1.10;;;;;;;13.97;100.00;98527.03;5273481;28;20015;-74
2024/03/28 10:09:57;;;;;;;2.72;0.63;;;;;;;13.66;100.00;98537.28;5268016;28;20099;-74
2024/03/28 10:12:28;;;;;;;3.35;0.77;;;;;;;13.33;100.00;98540.69;5271545;28;20016;-74
2024/03/28 10:14:58;;;;;;;1.67;0.60;;;;;;;13.12;100.00;98544.03;5269936;28;20649;-74
2024/03/28 10:17:29;;;;;;;4.50;0.68;;;;;;;12.95;100.00;98549.31;5271959;28;20024;-74
2024/03/28 10:20:01;;;;;;;3.08;0.80;;;;;;;13.00;100.00;98549.41;5267008;28;20046;-73
2024/03/28 10:22:41;;;;;;;1.85;0.70;;;;;;;12.57;100.00;98557.91;5269091;28;20145;-74
2024/03/28 10:25:19;;;;;;;2.33;0.70;;;;;;;12.37;100.00;98558.28;5270405;28;20141;-74
2024/03/28 10:27:50;;;;;;;4.00;1.13;;;;;;;12.34;100.00;98566.78;5269333;28;20023;-74
2024/03/28 10:30:22;;;;;;;1.95;0.60;;;;;;;12.12;100.00;98564.66;5265826;28;20015;-74
2024/03/28 10:33:03;;;;;;;2.72;1.00;;;;;;;12.50;100.00;98573.34;5268602;28;20142;-74
2024/03/28 10:35:35;;;;;;;6.13;1.08;;;;;;;12.87;100.00;98573.91;5268415;28;20024;-74
2024/03/28 10:38:06;;;;;;;4.25;1.88;;;;;;;13.03;100.00;98575.88;5267939;28;20035;-75
2024/03/28 10:40:38;;;;;;;7.47;3.83;;;;;;;13.35;100.00;98583.53;5269291;28;20400;-75
2024/03/28 10:43:13;;;;;;;4.00;0.32;;;;;;;13.72;100.00;98592.06;5272263;28;20020;-74
2024/03/28 10:45:47;;;;;;;0.63;0.40;;;;;;;14.06;100.00;98590.25;5269659;28;20103;-74
2024/03/28 10:48:18;;;;;;;9.00;0.70;;;;;;;14.13;100.00;98603.56;5269550;28;20032;-74
2024/03/28 10:50:56;;;;;;;4.68;0.60;;;;;;;14.18;100.00;98599.09;5268435;28;20027;-74
2024/03/28 10:53:36;;;;;;;2.47;0.70;;;;;;;13.96;100.00;98600.88;5271021;28;20056;-74
2024/03/28 10:56:12;;;;;;;4.25;0.77;;;;;;;13.73;100.00;98591.00;5272401;28;20034;-74
2024/03/28 10:58:42;;;;;;;;;;;;;;;13.84;100.00;98594.72;5270768;28;20028;-73
2024/03/28 11:01:14;;;;;;;1.95;0.40;;;;;;;13.99;100.00;98587.72;5271310;28;20654;-74
2024/03/28 11:03:46;;;;;;;3.05;0.50;;;;;;;14.38;100.00;98604.00;5268512;28;20027;-74
2024/03/28 11:06:18;;;;;;;4.82;0.55;;;;;;;14.62;100.00;98601.16;5274283;28;20020;-74
2024/03/28 11:08:49;;;;;;;3.20;0.60;;;;;;;14.50;100.00;98614.72;5270480;28;20024;-74
2024/03/28 11:11:20;;;;;;;2.88;0.50;;;;;;;13.93;100.00;98634.50;5269754;28;20020;-75
2024/03/28 11:13:52;;;;;;;1.58;0.60;;;;;;;13.50;100.00;98626.94;5262912;28;20677;-75
2024/03/28 11:16:23;;;;;;;1.63;0.75;;;;;;;13.55;100.00;98624.34;5269418;28;20031;-75
2024/03/28 11:18:59;;;;;;;5.07;0.70;;;;;;;13.39;100.00;98617.00;5265766;28;20073;-75
2024/03/28 11:21:32;;;;;;;2.22;0.68;;;;;;;13.36;100.00;98630.97;5272153;28;20026;-75
2024/03/28 11:24:03;;;;;;;1.35;0.95;;;;;;;13.20;100.00;98627.09;5257790;28;20021;-75
2024/03/28 11:26:34;;;;;;;1.50;0.63;;;;;;;12.91;100.00;98640.50;5260736;28;20385;-75
2024/03/28 11:29:06;;;;;;;1.02;0.32;;;;;;;12.98;100.00;98642.22;5265203;28;20015;-73
2024/03/28 11:31:37;;;;;;;1.30;0.35;;;;;;;12.62;100.00;98633.34;5260499;28;20023;-74
2024/03/28 11:34:07;;;;;;;2.30;0.35;;;;;;;12.49;100.00;98636.25;5262818;28;20027;-75
2024/03/28 11:36:38;;;;;;;15.57;7.85;;;;;;;12.87;100.00;98641.19;5267233;28;20475;-75
2024/03/28 11:39:08;;;;;;;8.25;3.15;;;;;;;12.98;100.00;98651.13;5263143;28;20020;-74
2024/03/28 11:41:39;;;;;;;12.40;9.40;;;;;;;13.11;100.00;98647.38;5265202;28;20061;-74
2024/03/28 11:44:10;;;;;;;2.60;0.40;;;;;;;12.64;100.00;98650.06;5263489;28;20035;-74
2024/03/28 11:46:40;;;;;;;3.25;0.70;;;;;;;12.92;100.00;98658.25;5264525;28;20471;-74
2024/03/28 11:49:19;;;;;;;2.67;0.80;;;;;;;13.03;100.00;98670.06;5265536;28;20028;-73
2024/03/28 11:51:51;;;;;;;2.25;0.75;;;;;;;13.03;100.00;98669.25;5256686;28;20865;-75
2024/03/28 11:54:22;;;;;;;4.05;0.70;;;;;;;13.11;100.00;98671.59;5264764;28;20040;-74
2024/03/28 11:56:52;;;;;;;2.88;0.93;;;;;;;13.16;100.00;98690.56;5267769;28;20114;-75